Time;durP1;ratioP1;P1;durP2;ratioP2;P2;SDS_P1;SDS_P2;PMS_P1;PMS_P2;Temp;Humidity;BMP_temperature;BMP_pressure;BME280_temperature;BME280_humidity;BME280_pressure;Samples;Min_cycle;Max_cycle;Signal;HPM_P1;HPM_P2
2022/01/29 00:00:10;;;;;;;7.00;3.75;;;;;;;8.36;35.97;95565.44;5010579;28;20202;-56
2022/01/29 00:02:40;;;;;;;9.60;4.40;;;;;;;7.97;36.70;95558.16;5009871;28;20648;-58
2022/01/29 00:05:08;;;;;;;8.07;3.97;;;;;;;7.39;37.05;95560.53;5010809;28;20190;-57
2022/01/29 00:07:38;;;;;;;8.50;4.32;;;;;;;7.73;37.48;95569.53;5010532;28;20208;-55
2022/01/29 00:10:06;;;;;;;6.70;3.35;;;;;;;7.79;36.58;95555.63;5010232;28;20207;-56
2022/01/29 00:12:33;;;;;;;5.88;3.90;;;;;;;8.24;36.56;95567.22;5011011;28;20202;-57
2022/01/29 00:15:00;;;;;;;7.93;4.38;;;;;;;7.72;37.28;95579.16;5010133;28;20194;-57
2022/01/29 00:17:26;;;;;;;7.50;4.50;;;;;;;8.18;36.27;95574.09;5010298;28;20233;-57
2022/01/29 00:19:54;;;;;;;9.73;4.55;;;;;;;8.15;36.45;95578.97;5009625;28;20649;-58
2022/01/29 00:22:21;;;;;;;8.32;4.32;;;;;;;7.81;36.76;95570.00;5010907;28;20198;-55
2022/01/29 00:24:48;;;;;;;6.75;4.03;;;;;;;7.84;36.83;95581.84;5009975;28;20703;-56
2022/01/29 00:27:15;;;;;;;7.22;4.65;;;;;;;7.50;37.60;95583.25;5010567;28;20224;-55
2022/01/29 00:29:43;;;;;;;8.90;5.22;;;;;;;7.62;38.29;95583.31;5009836;28;20683;-58
2022/01/29 00:32:11;;;;;;;9.02;4.70;;;;;;;7.43;38.49;95573.91;5010523;28;20198;-58
2022/01/29 00:34:40;;;;;;;7.68;4.28;;;;;;;7.35;38.83;95563.81;5010132;28;20669;-57
2022/01/29 00:37:07;;;;;;;9.20;4.72;;;;;;;7.52;39.08;95575.25;5010721;28;20225;-56
2022/01/29 00:39:35;;;;;;;9.05;5.53;;;;;;;7.60;39.09;95580.13;5009543;28;20201;-58
2022/01/29 00:42:03;;;;;;;7.82;5.30;;;;;;;7.86;38.20;95585.81;5009363;28;20194;-57
2022/01/29 00:44:46;;;;;;;10.43;4.90;;;;;;;7.16;39.01;95583.88;5010549;28;20283;-56
2022/01/29 00:47:13;;;;;;;9.68;5.00;;;;;;;7.65;38.55;95582.88;5010648;28;20198;-56
2022/01/29 00:49:41;;;;;;;9.82;4.90;;;;;;;7.77;38.54;95583.75;5009605;28;20708;-57
2022/01/29 00:52:08;;;;;;;12.98;6.00;;;;;;;7.77;38.00;95588.97;5010453;28;20201;-58
2022/01/29 00:54:35;;;;;;;9.70;5.57;;;;;;;7.29;39.37;95590.75;5009400;28;20235;-57
2022/01/29 00:57:02;;;;;;;12.20;5.38;;;;;;;7.53;38.56;95572.41;5010243;28;20651;-59
2022/01/29 00:59:31;;;;;;;9.45;5.72;;;;;;;7.62;38.95;95578.91;5009403;28;20245;-55
2022/01/29 01:01:58;;;;;;;9.90;5.63;;;;;;;8.03;38.21;95586.78;5010355;28;20259;-56
2022/01/29 01:04:25;;;;;;;9.63;5.65;;;;;;;7.77;38.64;95581.13;5009794;28;20194;-56
2022/01/29 01:06:52;;;;;;;10.88;5.90;;;;;;;7.81;38.49;95577.06;5010637;28;20217;-56
2022/01/29 01:09:19;;;;;;;11.18;6.25;;;;;;;7.38;39.58;95579.00;5009420;28;20264;-55
2022/01/29 01:11:46;;;;;;;10.43;5.97;;;;;;;6.69;41.20;95585.34;5010012;28;20251;-56
2022/01/29 01:14:13;;;;;;;11.77;6.35;;;;;;;7.05;40.98;95582.78;5009576;28;20181;-58
2022/01/29 01:16:39;;;;;;;12.27;6.78;;;;;;;8.11;38.79;95567.41;5009867;28;20244;-58
2022/01/29 01:19:06;;;;;;;11.32;6.78;;;;;;;8.05;39.54;95568.28;5009763;28;20209;-56
2022/01/29 01:21:33;;;;;;;10.90;6.43;;;;;;;7.43;40.67;95553.06;5009890;28;20283;-58
2022/01/29 01:24:00;;;;;;;9.68;6.43;;;;;;;7.52;40.64;95562.19;5009660;28;20209;-56
2022/01/29 01:26:27;;;;;;;13.30;6.75;;;;;;;7.83;39.87;95547.13;5010315;28;20200;-58
2022/01/29 01:28:54;;;;;;;12.13;7.03;;;;;;;7.91;40.28;95556.44;5010990;28;20659;-55
2022/01/29 01:31:21;;;;;;;9.60;6.32;;;;;;;7.53;40.73;95558.56;5013462;28;20205;-55
2022/01/29 01:33:48;;;;;;;11.25;6.95;;;;;;;7.44;40.79;95554.66;5013470;28;20194;-58
2022/01/29 01:36:19;;;;;;;10.05;6.22;;;;;;;7.37;40.45;95559.16;5013609;28;20230;-58
2022/01/29 01:38:59;;;;;;;9.98;6.03;;;;;;;7.44;40.89;95552.06;5013295;28;20206;-59
2022/01/29 01:41:28;;;;;;;9.25;6.55;;;;;;;7.16;40.93;95552.59;5013413;28;20182;-58
2022/01/29 01:44:02;;;;;;;9.80;5.72;;;;;;;7.42;40.93;95541.06;5012939;28;20649;-59
2022/01/29 01:46:30;;;;;;;8.43;5.80;;;;;;;7.51;40.32;95550.16;5013424;28;20224;-57
2022/01/29 01:48:57;;;;;;;9.52;6.20;;;;;;;7.63;40.87;95551.00;5012592;28;20206;-59
2022/01/29 01:51:25;;;;;;;13.63;6.03;;;;;;;7.51;41.12;95560.59;5013514;28;20256;-57
2022/01/29 01:53:52;;;;;;;10.88;6.40;;;;;;;7.10;41.82;95564.69;5012884;28;20232;-57
2022/01/29 01:56:19;;;;;;;10.75;6.07;;;;;;;6.78;42.19;95550.19;5013042;28;20240;-56
2022/01/29 01:58:46;;;;;;;9.95;6.55;;;;;;;6.32;43.68;95560.22;5012288;28;20242;-57
2022/01/29 02:01:14;;;;;;;10.25;6.35;;;;;;;7.11;42.24;95545.44;5012957;28;20198;-56
2022/01/29 02:03:41;;;;;;;11.77;6.72;;;;;;;6.65;43.36;95555.53;5012253;28;20248;-56
2022/01/29 02:06:08;;;;;;;11.90;6.00;;;;;;;6.50;43.19;95554.25;5013311;28;20284;-55
2022/01/29 02:08:35;;;;;;;10.85;6.75;;;;;;;7.02;42.19;95562.38;5012856;28;20645;-56
2022/01/29 02:11:05;;;;;;;10.98;7.30;;;;;;;7.42;41.35;95561.91;5012900;28;20274;-58
2022/01/29 02:13:33;;;;;;;9.35;6.50;;;;;;;7.73;40.85;95564.31;5012937;28;20197;-58
2022/01/29 02:16:02;;;;;;;12.65;7.80;;;;;;;7.36;41.80;95562.78;5012889;28;20272;-56
2022/01/29 02:18:29;;;;;;;11.52;7.05;;;;;;;7.28;42.09;95576.13;5012641;28;20218;-57
2022/01/29 02:20:58;;;;;;;9.85;6.75;;;;;;;7.32;42.09;95564.25;5012610;28;20214;-58
2022/01/29 02:23:25;;;;;;;15.65;7.78;;;;;;;7.24;41.79;95580.19;5012602;28;20262;-58
2022/01/29 02:25:54;;;;;;;11.00;7.30;;;;;;;6.80;42.99;95582.03;5012457;28;20194;-56
2022/01/29 02:28:23;;;;;;;11.85;6.95;;;;;;;7.36;42.12;95573.22;5011904;28;20762;-55
2022/01/29 02:30:57;;;;;;;11.68;6.72;;;;;;;7.03;42.33;95579.59;5012399;28;20201;-57
2022/01/29 02:33:25;;;;;;;11.68;7.00;;;;;;;6.92;42.93;95582.91;5012546;28;20202;-56
2022/01/29 02:35:54;;;;;;;12.65;6.75;;;;;;;6.30;44.50;95588.25;5012317;28;20210;-58
2022/01/29 02:38:24;;;;;;;12.50;6.90;;;;;;;6.64;43.83;95579.97;5012721;28;20217;-56
2022/01/29 02:40:56;;;;;;;12.07;7.20;;;;;;;6.37;44.14;95577.81;5012253;28;20279;-56
2022/01/29 02:43:32;;;;;;;10.25;7.32;;;;;;;6.76;43.93;95573.06;5012088;28;20241;-57
2022/01/29 02:46:07;;;;;;;10.88;7.45;;;;;;;7.19;42.57;95579.00;5012742;28;20197;-57
2022/01/29 02:48:34;;;;;;;9.30;6.53;;;;;;;6.78;43.49;95576.25;5011935;28;20287;-56
2022/01/29 02:51:01;;;;;;;12.13;6.72;;;;;;;7.11;43.15;95571.50;5012061;28;20190;-57
2022/01/29 02:53:29;;;;;;;9.85;6.70;;;;;;;6.75;43.64;95576.66;5012126;28;20217;-58
2022/01/29 02:55:56;;;;;;;11.10;7.07;;;;;;;7.05;43.10;95579.38;5012169;28;20276;-57
2022/01/29 02:58:23;;;;;;;11.48;7.40;;;;;;;7.45;42.09;95574.50;5011501;28;20280;-56
2022/01/29 03:00:50;;;;;;;10.55;7.30;;;;;;;7.32;42.68;95577.28;5010760;28;20244;-55
2022/01/29 03:03:17;;;;;;;9.73;7.20;;;;;;;7.16;42.43;95584.66;5011901;28;20206;-57
2022/01/29 03:05:45;;;;;;;11.27;6.97;;;;;;;7.08;42.81;95582.34;5011947;28;20241;-57
2022/01/29 03:08:12;;;;;;;9.60;6.75;;;;;;;6.37;44.15;95585.63;5011514;28;21009;-57
2022/01/29 03:10:39;;;;;;;8.63;6.38;;;;;;;6.84;43.50;95577.97;5011456;28;20237;-57
2022/01/29 03:13:06;;;;;;;11.95;6.35;;;;;;;6.93;42.95;95573.28;5011258;28;20240;-57
2022/01/29 03:15:33;;;;;;;10.20;6.53;;;;;;;6.41;44.04;95574.56;5012333;28;20613;-53
2022/01/29 03:18:00;;;;;;;8.95;5.82;;;;;;;5.67;45.56;95565.84;5011270;28;20234;-55
2022/01/29 03:20:27;;;;;;;7.55;5.68;;;;;;;6.15;44.89;95559.94;5011415;28;20187;-55
2022/01/29 03:22:54;;;;;;;8.52;5.90;;;;;;;6.22;44.66;95561.72;5011466;28;20194;-57
2022/01/29 03:25:20;;;;;;;11.88;6.63;;;;;;;6.21;44.47;95563.50;5011611;28;20206;-56
2022/01/29 03:27:47;;;;;;;11.60;6.68;;;;;;;5.87;44.76;95564.75;5011824;28;20229;-56
2022/01/29 03:30:14;;;;;;;11.05;6.50;;;;;;;6.47;43.75;95562.50;5010763;28;20217;-55
2022/01/29 03:32:42;;;;;;;10.63;6.63;;;;;;;6.53;43.65;95572.06;5011812;28;20206;-57
2022/01/29 03:35:10;;;;;;;10.73;6.80;;;;;;;7.15;42.36;95566.66;5011315;28;20213;-55
2022/01/29 03:37:37;;;;;;;11.90;6.70;;;;;;;6.90;42.55;95569.31;5011425;28;20268;-58
2022/01/29 03:40:06;;;;;;;9.52;6.40;;;;;;;6.89;42.30;95570.31;5010594;28;20661;-56
2022/01/29 03:42:39;;;;;;;9.32;5.15;;;;;;;6.17;43.48;95583.16;5011421;28;20198;-54
2022/01/29 03:45:08;;;;;;;9.93;5.72;;;;;;;6.43;43.04;95567.34;5011096;28;20198;-56
2022/01/29 03:47:35;;;;;;;9.23;6.07;;;;;;;7.10;41.98;95579.50;5011320;28;20205;-57
2022/01/29 03:50:03;;;;;;;7.28;5.35;;;;;;;7.21;41.50;95567.59;5010438;28;20202;-57
2022/01/29 03:52:30;;;;;;;7.53;5.55;;;;;;;7.35;41.45;95576.84;5010720;28;20194;-57
2022/01/29 03:54:57;;;;;;;7.68;5.35;;;;;;;7.35;40.94;95569.03;5010984;28;20214;-56
2022/01/29 03:57:24;;;;;;;8.75;4.88;;;;;;;6.76;41.74;95573.06;5010938;28;20272;-59
2022/01/29 03:59:50;;;;;;;9.07;5.75;;;;;;;7.17;41.14;95570.59;5010624;28;20208;-59
2022/01/29 04:02:22;;;;;;;10.45;5.88;;;;;;;7.26;41.45;95578.16;5011109;28;20201;-57
2022/01/29 04:04:49;;;;;;;8.43;5.85;;;;;;;7.82;40.29;95574.22;5010867;28;20190;-58
2022/01/29 04:07:16;;;;;;;9.00;5.93;;;;;;;7.38;40.79;95573.78;5011117;28;20634;-58
2022/01/29 04:09:48;;;;;;;10.05;6.35;;;;;;;7.49;41.14;95578.25;5010482;28;20205;-59
2022/01/29 04:12:15;;;;;;;10.68;5.88;;;;;;;7.55;40.59;95572.19;5010803;28;20194;-57
2022/01/29 04:14:43;;;;;;;5.85;4.75;;;;;;;7.54;40.71;95578.41;5010495;28;20213;-60
2022/01/29 04:17:11;;;;;;;8.63;4.90;;;;;;;6.98;41.75;95596.88;5009896;28;20295;-58
2022/01/29 04:19:38;;;;;;;10.75;5.65;;;;;;;7.43;40.91;95568.69;5009279;28;20210;-55
2022/01/29 04:22:06;;;;;;;7.32;5.22;;;;;;;7.46;40.73;95568.28;5010022;28;20186;-58
2022/01/29 04:24:34;;;;;;;8.23;5.75;;;;;;;7.83;40.15;95564.56;5009137;28;20689;-57
2022/01/29 04:27:03;;;;;;;8.43;5.72;;;;;;;8.00;39.90;95560.31;5009648;28;20186;-56
2022/01/29 04:29:40;;;;;;;8.00;5.93;;;;;;;7.70;40.77;95567.38;5009018;28;20202;-58
2022/01/29 04:32:13;;;;;;;9.07;5.53;;;;;;;7.46;41.23;95561.28;5009770;28;20200;-56
2022/01/29 04:34:39;;;;;;;7.32;5.43;;;;;;;7.07;42.07;95569.53;5009023;28;20213;-58
2022/01/29 04:37:06;;;;;;;9.50;5.60;;;;;;;7.37;41.11;95564.38;5009435;28;20224;-58
2022/01/29 04:39:33;;;;;;;7.18;5.35;;;;;;;6.72;42.53;95571.88;5008673;28;20192;-56
2022/01/29 04:42:00;;;;;;;7.53;5.50;;;;;;;7.45;41.03;95569.28;5009414;28;20193;-57
2022/01/29 04:44:27;;;;;;;7.00;5.18;;;;;;;7.64;40.37;95576.06;5009242;28;20196;-59
2022/01/29 04:46:54;;;;;;;8.10;5.70;;;;;;;8.23;39.82;95576.03;5009582;28;20201;-57
2022/01/29 04:49:21;;;;;;;8.90;5.55;;;;;;;8.19;39.82;95575.69;5008454;28;20210;-57
2022/01/29 04:51:48;;;;;;;7.53;5.03;;;;;;;7.77;40.35;95575.91;5009269;28;20275;-56
2022/01/29 04:54:14;;;;;;;8.43;5.25;;;;;;;7.63;40.70;95577.06;5008760;28;20186;-58
2022/01/29 04:56:41;;;;;;;10.35;5.03;;;;;;;7.60;40.06;95572.31;5009298;28;20321;-58
2022/01/29 04:59:08;;;;;;;6.40;4.72;;;;;;;7.72;40.45;95567.97;5009098;28;20193;-56
2022/01/29 05:01:35;;;;;;;5.60;4.32;;;;;;;7.58;40.16;95579.56;5009477;28;20747;-58
2022/01/29 05:04:02;;;;;;;7.53;5.10;;;;;;;7.49;40.45;95575.66;5007878;28;20626;-56
2022/01/29 05:06:29;;;;;;;6.22;4.93;;;;;;;7.51;40.24;95581.47;5009202;28;20684;-59
2022/01/29 05:08:57;;;;;;;5.03;3.90;;;;;;;7.43;40.21;95573.91;5008778;28;20206;-58
2022/01/29 05:11:24;;;;;;;14.18;7.95;;;;;;;7.71;39.75;95588.03;5009537;28;20206;-56
2022/01/29 05:13:50;;;;;;;7.07;4.85;;;;;;;7.37;40.71;95577.41;5008655;28;20186;-57
2022/01/29 05:27:09;;;;;;;7.07;5.20;;;;;;;7.38;41.64;95597.25;5009588;28;20894;-58
2022/01/29 05:29:37;;;;;;;8.05;5.50;;;;;;;7.31;41.06;95592.13;5009337;28;20256;-58
2022/01/29 05:32:07;;;;;;;8.05;5.88;;;;;;;7.77;40.55;95591.56;5009931;28;20205;-57
2022/01/29 05:34:35;;;;;;;6.88;5.47;;;;;;;7.24;41.82;95595.81;5009446;28;20206;-58
2022/01/29 05:37:02;;;;;;;10.38;6.25;;;;;;;7.17;42.36;95596.66;5009375;28;20253;-56
2022/01/29 05:39:30;;;;;;;8.98;6.32;;;;;;;8.00;41.04;95602.09;5009180;28;20293;-57
2022/01/29 05:41:58;;;;;;;9.35;6.43;;;;;;;7.81;40.47;95608.38;5009813;28;20641;-58
2022/01/29 05:44:26;;;;;;;9.45;6.28;;;;;;;7.51;41.16;95612.75;5008982;28;20198;-57
2022/01/29 05:46:53;;;;;;;9.40;6.72;;;;;;;7.13;42.64;95620.78;5008616;28;20244;-57
2022/01/29 05:49:20;;;;;;;14.80;7.35;;;;;;;7.58;41.41;95621.28;5008548;28;20555;-58
2022/01/29 05:51:47;;;;;;;12.10;7.38;;;;;;;7.75;41.12;95620.47;5009539;28;20194;-57
2022/01/29 05:54:14;;;;;;;12.75;8.23;;;;;;;7.74;41.04;95618.88;5009316;28;20204;-57
2022/01/29 05:56:41;;;;;;;14.27;7.85;;;;;;;7.67;41.37;95633.00;5009413;28;20182;-57
2022/01/29 05:59:26;;;;;;;9.88;7.22;;;;;;;8.36;39.89;95635.16;5008472;28;20206;-56
2022/01/29 06:01:53;;;;;;;10.63;7.63;;;;;;;8.25;40.58;95647.13;5009871;28;20202;-57
2022/01/29 06:04:20;;;;;;;13.30;8.05;;;;;;;8.27;40.14;95654.75;5009092;28;20645;-58
2022/01/29 06:06:47;;;;;;;10.90;7.25;;;;;;;7.85;40.90;95646.03;5009487;28;20206;-57
2022/01/29 06:09:14;;;;;;;10.63;7.32;;;;;;;7.66;41.53;95653.09;5008868;28;20190;-57
2022/01/29 06:11:41;;;;;;;10.88;7.05;;;;;;;7.60;41.40;95647.94;5009829;28;20575;-57
2022/01/29 06:14:09;;;;;;;11.45;7.60;;;;;;;8.00;41.42;95659.50;5009044;28;20695;-55
2022/01/29 06:16:35;;;;;;;11.68;7.30;;;;;;;7.88;41.00;95656.06;5012516;28;20594;-58
2022/01/29 06:19:02;;;;;;;10.27;7.22;;;;;;;7.47;41.94;95654.09;5012601;28;20272;-57
2022/01/29 06:21:29;;;;;;;13.68;8.60;;;;;;;7.78;42.29;95660.97;5013125;28;20206;-53
2022/01/29 06:23:58;;;;;;;11.00;7.22;;;;;;;7.24;43.05;95658.38;5012370;28;20201;-58
2022/01/29 06:26:25;;;;;;;11.75;8.00;;;;;;;7.10;43.36;95663.69;5013103;28;20193;-59
2022/01/29 06:28:52;;;;;;;10.85;7.82;;;;;;;7.34;42.80;95656.03;5012534;28;20256;-58
2022/01/29 06:31:19;;;;;;;15.65;8.00;;;;;;;6.92;43.64;95653.25;5013306;28;20415;-56
2022/01/29 06:33:46;;;;;;;34.60;15.90;;;;;;;6.79;43.76;95653.34;5012063;28;20669;-56
2022/01/29 06:36:13;;;;;;;14.32;8.18;;;;;;;7.14;42.91;95649.25;5012581;28;20193;-57
2022/01/29 06:38:39;;;;;;;13.43;8.07;;;;;;;6.94;43.34;95659.03;5012316;28;20225;-57
2022/01/29 06:41:06;;;;;;;11.57;7.93;;;;;;;7.29;42.50;95661.13;5012656;28;20665;-56
2022/01/29 06:43:33;;;;;;;11.10;8.10;;;;;;;7.69;42.07;95662.28;5011934;28;20210;-57
2022/01/29 06:46:00;;;;;;;13.35;8.75;;;;;;;7.46;42.33;95668.19;5013019;28;20217;-58
2022/01/29 06:48:27;;;;;;;11.38;8.25;;;;;;;7.72;42.64;95672.31;5011914;28;20716;-54
2022/01/29 06:50:54;;;;;;;15.68;8.35;;;;;;;7.74;42.39;95670.25;5012298;28;20614;-58
2022/01/29 06:53:21;;;;;;;13.85;7.82;;;;;;;7.85;41.85;95677.34;5012216;28;20208;-56
2022/01/29 06:55:48;;;;;;;12.98;8.38;;;;;;;7.95;41.98;95672.41;5012564;28;20201;-58
2022/01/29 06:58:15;;;;;;;13.73;8.88;;;;;;;8.07;41.34;95670.66;5012537;28;20236;-57
2022/01/29 07:01:02;;;;;;;13.68;8.30;;;;;;;7.89;41.58;95674.09;5011772;28;20232;-59
2022/01/29 07:03:29;;;;;;;12.15;8.23;;;;;;;7.82;41.22;95669.97;5011690;28;20704;-56
2022/01/29 07:05:56;;;;;;;10.40;7.40;;;;;;;6.89;43.43;95684.16;5012175;28;20201;-57
2022/01/29 07:08:23;;;;;;;11.13;7.05;;;;;;;6.81;43.58;95690.41;5011846;28;20202;-58
2022/01/29 07:10:51;;;;;;;11.10;8.02;;;;;;;7.66;42.73;95679.19;5011757;28;20201;-55
2022/01/29 07:13:20;;;;;;;11.15;7.90;;;;;;;7.13;43.28;95694.53;5011705;28;20275;-60
2022/01/29 07:15:47;;;;;;;12.27;7.43;;;;;;;7.24;43.03;95684.44;5011939;28;20194;-59
2022/01/29 07:18:14;;;;;;;12.55;7.45;;;;;;;7.35;42.57;95681.94;5011318;28;20242;-59
2022/01/29 07:20:41;;;;;;;10.13;7.20;;;;;;;6.52;43.92;95698.84;5011622;28;20217;-57
2022/01/29 07:23:08;;;;;;;9.73;7.70;;;;;;;7.69;42.81;95702.22;5011765;28;20218;-59
2022/01/29 07:25:35;;;;;;;11.20;8.02;;;;;;;7.83;41.77;95695.03;5011237;28;20244;-57
2022/01/29 07:28:02;;;;;;;11.95;7.53;;;;;;;8.00;41.33;95696.03;5010415;28;20186;-57
2022/01/29 07:30:29;;;;;;;12.20;7.88;;;;;;;7.64;42.06;95706.50;5011247;28;20206;-56
2022/01/29 07:32:56;;;;;;;10.73;7.43;;;;;;;7.79;42.14;95709.53;5011090;28;20200;-58
2022/01/29 07:35:23;;;;;;;10.85;7.13;;;;;;;6.91;43.31;95721.19;5011414;28;20635;-56
2022/01/29 07:37:52;;;;;;;9.82;7.38;;;;;;;7.57;42.63;95710.97;5007692;28;20649;-59
2022/01/29 07:40:19;;;;;;;12.75;8.60;;;;;;;7.96;41.91;95719.16;5002078;28;20301;-57
2022/01/29 07:42:46;;;;;;;11.70;9.48;;;;;;;8.77;40.25;95719.53;5004490;28;20670;-58
2022/01/29 07:45:13;;;;;;;14.63;10.00;;;;;;;8.52;41.16;95720.69;5004938;28;20570;-57
2022/01/29 07:47:40;;;;;;;12.52;9.02;;;;;;;8.63;42.08;95717.31;5003077;28;21047;-57
2022/01/29 07:50:07;;;;;;;14.98;8.90;;;;;;;8.78;42.74;95723.72;4997158;28;20209;-56
2022/01/29 07:52:37;;;;;;;11.00;8.18;;;;;;;8.59;41.09;95716.97;4999324;28;20700;-60
2022/01/29 07:55:07;;;;;;;17.13;10.98;;;;;;;7.64;42.12;95729.97;4997560;28;20947;-58
2022/01/29 07:57:34;;;;;;;58.33;27.35;;;;;;;8.33;41.50;95726.97;4995188;28;20218;-58
2022/01/29 08:00:01;;;;;;;11.75;7.40;;;;;;;7.61;42.59;95743.44;5005387;28;20638;-60
2022/01/29 08:02:27;;;;;;;13.45;8.50;;;;;;;8.19;41.55;95736.78;5003438;28;20274;-57
2022/01/29 08:04:54;;;;;;;12.60;8.75;;;;;;;8.87;39.85;95730.22;4997546;28;20212;-55
2022/01/29 08:07:22;;;;;;;13.82;9.57;;;;;;;8.51;41.60;95734.75;4998441;28;20202;-59
2022/01/29 08:09:49;;;;;;;14.73;9.98;;;;;;;8.09;42.14;95736.47;4993950;28;20578;-56
2022/01/29 08:12:16;;;;;;;31.38;21.08;;;;;;;8.17;41.99;95738.81;4990803;28;20684;-57
2022/01/29 08:14:46;;;;;;;12.38;7.63;;;;;;;8.63;40.75;95733.78;4991590;28;20611;-55
2022/01/29 08:17:12;;;;;;;12.27;8.88;;;;;;;9.15;40.38;95743.47;4990419;28;20257;-57
2022/01/29 08:19:39;;;;;;;12.02;7.72;;;;;;;8.68;40.66;95741.78;4995657;28;20194;-57
2022/01/29 08:22:18;;;;;;;12.15;8.40;;;;;;;9.11;39.93;95736.28;4992291;28;20213;-53
2022/01/29 08:24:47;;;;;;;15.05;8.38;;;;;;;8.15;41.71;95738.22;4996691;28;20221;-54
2022/01/29 08:27:14;;;;;;;10.48;8.02;;;;;;;8.25;41.46;95746.34;4998452;28;20565;-55
2022/01/29 08:29:41;;;;;;;10.65;7.90;;;;;;;8.59;41.04;95722.22;4998492;28;20217;-56
2022/01/29 08:32:08;;;;;;;10.73;7.55;;;;;;;7.92;41.92;95745.91;4994065;28;20218;-56
2022/01/29 08:34:35;;;;;;;13.05;8.50;;;;;;;8.72;40.48;95735.06;4999031;28;20205;-55
2022/01/29 08:37:04;;;;;;;18.92;13.20;;;;;;;8.18;42.17;95750.81;4998794;28;20206;-54
2022/01/29 08:39:31;;;;;;;34.08;22.88;;;;;;;8.80;41.02;95734.75;4996695;28;20234;-54
2022/01/29 08:41:59;;;;;;;25.95;16.85;;;;;;;8.61;43.46;95741.03;4988387;28;20205;-57
2022/01/29 08:44:26;;;;;;;14.00;8.50;;;;;;;8.30;41.95;95749.13;4995264;28;20206;-56
2022/01/29 08:46:54;;;;;;;12.75;8.05;;;;;;;7.93;42.06;95747.50;4996535;28;20202;-60
2022/01/29 08:49:22;;;;;;;13.50;8.35;;;;;;;8.38;41.32;95751.41;4987464;28;20644;-56
2022/01/29 08:51:48;;;;;;;13.55;8.07;;;;;;;8.86;40.27;95754.78;4996424;28;20202;-56
2022/01/29 08:54:15;;;;;;;16.15;8.70;;;;;;;9.17;40.48;95762.34;4994963;28;20197;-59
2022/01/29 08:56:42;;;;;;;12.02;8.18;;;;;;;9.00;40.25;95758.78;5002732;28;20198;-58
2022/01/29 08:59:09;;;;;;;13.77;8.90;;;;;;;9.61;39.41;95763.63;4996410;28;20246;-56
2022/01/29 09:01:36;;;;;;;13.55;8.50;;;;;;;9.25;39.99;95731.66;4992022;28;20210;-56
2022/01/29 09:04:04;;;;;;;15.48;8.20;;;;;;;9.48;38.74;95747.34;4989608;28;20206;-55
2022/01/29 09:06:31;;;;;;;12.05;7.70;;;;;;;10.62;37.77;95750.78;4989758;28;20206;-54
2022/01/29 09:08:57;;;;;;;11.40;7.28;;;;;;;10.48;37.39;95748.66;4989531;28;20202;-54
2022/01/29 09:11:24;;;;;;;19.13;8.23;;;;;;;11.20;36.77;95740.78;4989750;28;20198;-57
2022/01/29 09:13:51;;;;;;;10.23;7.80;;;;;;;10.76;36.33;95753.94;4989344;28;20199;-60
2022/01/29 09:16:19;;;;;;;14.32;8.95;;;;;;;10.86;36.87;95747.03;4989242;28;20226;-59
2022/01/29 09:18:46;;;;;;;103.97;42.50;;;;;;;12.09;35.95;95736.31;4988213;28;20260;-60
2022/01/29 09:21:13;;;;;;;11.38;8.27;;;;;;;10.69;36.78;95735.69;4988439;28;20236;-59
2022/01/29 09:23:41;;;;;;;11.57;8.52;;;;;;;10.47;37.56;95742.66;4995281;28;21067;-58
2022/01/29 09:26:07;;;;;;;11.70;8.45;;;;;;;10.87;37.15;95737.34;4996393;28;20635;-56
2022/01/29 09:28:34;;;;;;;12.55;8.52;;;;;;;11.24;36.59;95727.97;4995270;28;20968;-59
2022/01/29 09:31:01;;;;;;;14.10;8.80;;;;;;;12.34;34.90;95723.47;4997947;28;20225;-59
2022/01/29 09:33:29;;;;;;;15.38;8.02;;;;;;;11.75;34.84;95724.31;4992299;28;20194;-54
2022/01/29 09:35:55;;;;;;;14.27;8.52;;;;;;;10.98;36.44;95729.38;4997231;28;20613;-56
2022/01/29 09:38:22;;;;;;;16.83;12.02;;;;;;;11.02;37.43;95730.50;4997161;28;20215;-54
2022/01/29 09:40:49;;;;;;;103.70;65.45;;;;;;;11.50;36.99;95726.53;5001956;28;20206;-59
2022/01/29 09:43:17;;;;;;;11.00;8.60;;;;;;;12.06;35.06;95721.03;4994305;28;20661;-56
2022/01/29 09:45:49;;;;;;;9.13;7.70;;;;;;;11.15;35.26;95730.22;4993829;28;20251;-55
2022/01/29 09:48:22;;;;;;;14.95;8.73;;;;;;;11.66;34.71;95715.25;4993174;28;20449;-60
2022/01/29 09:50:53;;;;;;;12.27;9.38;;;;;;;12.11;34.72;95728.97;4999663;28;20194;-58
2022/01/29 09:53:20;;;;;;;12.37;8.20;;;;;;;12.19;34.54;95736.41;5005143;28;20195;-58
2022/01/29 09:55:47;;;;;;;11.52;7.93;;;;;;;11.93;34.48;95737.16;5000382;28;20461;-58
2022/01/29 09:58:14;;;;;;;11.80;7.93;;;;;;;11.83;35.07;95732.56;4993792;28;20234;-58
2022/01/29 10:00:41;;;;;;;13.02;9.85;;;;;;;11.17;35.78;95738.63;5018844;28;21278;-60
2022/01/29 10:03:11;;;;;;;204.82;141.80;;;;;;;11.03;37.54;95745.22;4995566;28;20195;-57
2022/01/29 10:05:43;;;;;;;42.88;28.42;;;;;;;10.09;38.21;95747.66;4999990;28;20205;-62
2022/01/29 10:08:11;;;;;;;12.27;8.65;;;;;;;10.17;37.28;95742.84;4999783;28;20198;-57
2022/01/29 10:10:40;;;;;;;11.35;7.63;;;;;;;9.67;37.81;95746.22;5000414;28;20210;-60
2022/01/29 10:13:37;;;;;;;8.73;7.22;;;;;;;10.29;36.66;95753.31;4997814;28;20642;-54
2022/01/29 10:16:14;;;;;;;8.02;6.70;;;;;;;9.67;37.33;95746.22;4999118;28;20222;-56
2022/01/29 10:18:47;;;;;;;8.82;6.47;;;;;;;9.21;38.45;95752.22;5000996;28;20241;-56
2022/01/29 10:21:15;;;;;;;7.65;5.38;;;;;;;8.85;38.56;95747.94;5009711;28;20214;-57
2022/01/29 10:23:44;;;;;;;8.93;6.63;;;;;;;8.80;38.90;95753.03;4997686;28;20198;-56
2022/01/29 10:26:25;;;;;;;9.43;7.57;;;;;;;9.33;38.59;95744.38;4998459;28;20213;-55
2022/01/29 10:28:55;;;;;;;12.85;8.27;;;;;;;8.99;38.75;95756.38;4992488;28;20210;-55
2022/01/29 10:31:23;;;;;;;14.48;7.07;;;;;;;8.49;40.15;95753.28;5009302;28;20531;-57
2022/01/29 10:33:50;;;;;;;11.52;8.07;;;;;;;8.31;40.53;95755.91;5006441;28;20216;-58
2022/01/29 10:36:19;;;;;;;11.35;7.57;;;;;;;8.20;40.77;95756.63;4992760;28;20298;-56
2022/01/29 10:38:55;;;;;;;11.35;6.85;;;;;;;7.71;41.67;95769.81;4994212;28;20229;-58
2022/01/29 10:41:26;;;;;;;18.05;8.60;;;;;;;8.51;40.69;95756.47;4999899;28;20275;-59
2022/01/29 10:44:19;;;;;;;14.85;10.98;;;;;;;8.15;41.86;95761.72;5004155;28;20210;-60
2022/01/29 10:46:51;;;;;;;12.85;9.25;;;;;;;8.54;40.07;95756.00;4996747;28;20289;-55
2022/01/29 10:49:33;;;;;;;15.70;11.10;;;;;;;8.69;40.68;95764.25;5003610;28;20207;-57
2022/01/29 10:52:09;;;;;;;14.10;9.43;;;;;;;8.61;40.92;95767.16;4990100;28;20202;-57
2022/01/29 10:54:37;;;;;;;13.85;8.75;;;;;;;8.27;41.24;95764.41;4995048;28;20198;-57
2022/01/29 10:57:13;;;;;;;13.48;9.45;;;;;;;8.32;41.95;95761.94;4998489;28;20202;-57
2022/01/29 10:59:51;;;;;;;14.48;9.13;;;;;;;7.92;42.65;95761.56;5000034;28;20248;-58
2022/01/29 11:02:21;;;;;;;14.15;10.02;;;;;;;7.94;42.46;95765.56;5000777;28;20210;-57
2022/01/29 11:04:49;;;;;;;23.50;15.98;;;;;;;8.53;41.83;95758.84;4992357;28;20198;-56
2022/01/29 11:07:19;;;;;;;93.78;56.15;;;;;;;8.06;44.51;95758.59;5003393;28;20269;-57
2022/01/29 11:09:50;;;;;;;16.25;11.07;;;;;;;8.38;42.98;95761.84;5002955;28;20198;-56
2022/01/29 11:12:26;;;;;;;15.57;10.88;;;;;;;8.58;42.43;95744.09;5006559;28;20202;-54
2022/01/29 11:14:55;;;;;;;15.57;10.55;;;;;;;9.07;40.79;95749.00;5005905;28;20202;-56
2022/01/29 11:17:23;;;;;;;15.00;9.55;;;;;;;8.72;41.37;95742.91;5004280;28;21073;-55
2022/01/29 11:19:51;;;;;;;16.17;10.88;;;;;;;8.73;40.80;95747.13;5003200;28;20224;-56
2022/01/29 11:22:24;;;;;;;26.33;14.95;;;;;;;8.69;40.88;95743.34;5005525;28;20209;-58
2022/01/29 11:24:57;;;;;;;14.98;10.10;;;;;;;8.67;41.63;95742.78;5003956;28;20496;-56
2022/01/29 11:27:37;;;;;;;15.90;11.35;;;;;;;8.80;40.86;95742.59;5003165;28;20296;-56
2022/01/29 11:30:07;;;;;;;15.10;10.98;;;;;;;8.85;41.07;95737.47;5008897;28;20589;-54
2022/01/29 11:32:42;;;;;;;14.65;10.32;;;;;;;8.47;41.47;95744.84;5003554;28;20206;-55
2022/01/29 11:35:14;;;;;;;13.07;9.52;;;;;;;8.56;41.16;95753.19;5000574;28;20204;-57
2022/01/29 11:37:47;;;;;;;12.20;8.43;;;;;;;8.17;41.84;95754.47;5000555;28;20194;-55
2022/01/29 11:40:25;;;;;;;15.23;10.35;;;;;;;8.81;40.74;95731.09;5007776;28;20287;-55
2022/01/29 11:43:07;;;;;;;16.73;10.00;;;;;;;8.23;42.05;95742.34;4997241;28;20704;-54
2022/01/29 11:45:45;;;;;;;16.00;11.00;;;;;;;8.65;41.11;95733.59;5005581;28;20204;-57
2022/01/29 11:48:29;;;;;;;19.77;12.00;;;;;;;8.89;41.22;95736.03;5002418;28;20887;-53
2022/01/29 11:50:58;;;;;;;17.13;11.50;;;;;;;9.11;40.55;95731.06;5002501;28;20198;-55